sensor_id;sensor_type;location;lat;lon;timestamp;P1;durP1;ratioP1;P2;durP2;ratioP2
49488;SDS011;35382;51.484;11.476;2024-01-15T00:00:20;37.83;;;17.00;;
49488;SDS011;35382;51.484;11.476;2024-01-15T00:02:46;39.42;;;17.17;;
49488;SDS011;35382;51.484;11.476;2024-01-15T00:05:12;44.03;;;18.33;;
49488;SDS011;35382;51.484;11.476;2024-01-15T00:07:37;41.55;;;18.73;;
49488;SDS011;35382;51.484;11.476;2024-01-15T00:10:03;39.63;;;18.70;;
49488;SDS011;35382;51.484;11.476;2024-01-15T00:12:28;39.03;;;16.63;;
49488;SDS011;35382;51.484;11.476;2024-01-15T00:14:54;38.60;;;17.02;;
49488;SDS011;35382;51.484;11.476;2024-01-15T00:17:19;34.30;;;16.15;;
49488;SDS011;35382;51.484;11.476;2024-01-15T00:19:45;36.70;;;15.98;;
49488;SDS011;35382;51.484;11.476;2024-01-15T00:22:10;36.28;;;17.90;;
49488;SDS011;35382;51.484;11.476;2024-01-15T00:24:35;39.92;;;15.40;;
49488;SDS011;35382;51.484;11.476;2024-01-15T00:27:01;35.25;;;16.25;;
49488;SDS011;35382;51.484;11.476;2024-01-15T00:29:26;33.75;;;16.23;;
49488;SDS011;35382;51.484;11.476;2024-01-15T00:31:51;37.58;;;16.67;;
49488;SDS011;35382;51.484;11.476;2024-01-15T00:34:17;34.38;;;15.68;;
49488;SDS011;35382;51.484;11.476;2024-01-15T00:36:42;37.20;;;17.73;;
49488;SDS011;35382;51.484;11.476;2024-01-15T00:39:07;32.30;;;15.65;;
49488;SDS011;35382;51.484;11.476;2024-01-15T00:41:33;35.67;;;17.60;;
49488;SDS011;35382;51.484;11.476;2024-01-15T00:43:58;37.33;;;17.02;;
49488;SDS011;35382;51.484;11.476;2024-01-15T00:46:23;36.53;;;15.90;;
49488;SDS011;35382;51.484;11.476;2024-01-15T00:48:49;36.63;;;18.10;;
49488;SDS011;35382;51.484;11.476;2024-01-15T00:51:14;36.88;;;16.67;;
49488;SDS011;35382;51.484;11.476;2024-01-15T00:53:39;41.58;;;18.23;;
49488;SDS011;35382;51.484;11.476;2024-01-15T00:56:05;40.08;;;17.33;;
49488;SDS011;35382;51.484;11.476;2024-01-15T00:58:31;35.75;;;16.40;;
49488;SDS011;35382;51.484;11.476;2024-01-15T01:00:56;38.05;;;17.77;;
49488;SDS011;35382;51.484;11.476;2024-01-15T01:03:21;36.83;;;17.83;;
49488;SDS011;35382;51.484;11.476;2024-01-15T01:05:50;39.17;;;17.13;;
49488;SDS011;35382;51.484;11.476;2024-01-15T01:08:15;41.85;;;18.52;;
49488;SDS011;35382;51.484;11.476;2024-01-15T01:10:41;43.38;;;18.80;;
49488;SDS011;35382;51.484;11.476;2024-01-15T01:13:06;43.55;;;18.88;;
49488;SDS011;35382;51.484;11.476;2024-01-15T01:15:32;46.78;;;19.33;;
49488;SDS011;35382;51.484;11.476;2024-01-15T01:17:57;48.05;;;20.23;;
49488;SDS011;35382;51.484;11.476;2024-01-15T01:20:22;45.13;;;19.17;;
49488;SDS011;35382;51.484;11.476;2024-01-15T01:22:48;48.03;;;22.00;;
49488;SDS011;35382;51.484;11.476;2024-01-15T01:25:13;44.85;;;19.05;;
49488;SDS011;35382;51.484;11.476;2024-01-15T01:27:41;47.78;;;20.80;;
49488;SDS011;35382;51.484;11.476;2024-01-15T01:30:07;50.95;;;20.73;;
49488;SDS011;35382;51.484;11.476;2024-01-15T01:32:32;54.70;;;19.98;;
49488;SDS011;35382;51.484;11.476;2024-01-15T01:34:57;45.65;;;17.50;;
49488;SDS011;35382;51.484;11.476;2024-01-15T01:37:23;49.30;;;19.60;;
49488;SDS011;35382;51.484;11.476;2024-01-15T01:39:49;47.33;;;18.60;;
49488;SDS011;35382;51.484;11.476;2024-01-15T01:42:15;54.45;;;21.00;;
49488;SDS011;35382;51.484;11.476;2024-01-15T01:44:41;55.97;;;21.35;;
49488;SDS011;35382;51.484;11.476;2024-01-15T01:47:06;54.28;;;20.98;;
49488;SDS011;35382;51.484;11.476;2024-01-15T01:49:33;53.22;;;20.38;;
49488;SDS011;35382;51.484;11.476;2024-01-15T01:51:59;50.47;;;20.15;;
49488;SDS011;35382;51.484;11.476;2024-01-15T01:54:26;58.35;;;21.40;;
49488;SDS011;35382;51.484;11.476;2024-01-15T01:56:55;50.42;;;19.27;;
49488;SDS011;35382;51.484;11.476;2024-01-15T01:59:21;55.50;;;20.93;;
49488;SDS011;35382;51.484;11.476;2024-01-15T02:01:48;56.13;;;20.98;;
49488;SDS011;35382;51.484;11.476;2024-01-15T02:04:15;48.87;;;18.77;;
49488;SDS011;35382;51.484;11.476;2024-01-15T02:06:40;49.05;;;20.50;;
49488;SDS011;35382;51.484;11.476;2024-01-15T02:09:06;54.45;;;21.90;;
49488;SDS011;35382;51.484;11.476;2024-01-15T02:11:33;57.88;;;21.70;;
49488;SDS011;35382;51.484;11.476;2024-01-15T02:13:58;51.50;;;21.42;;
49488;SDS011;35382;51.484;11.476;2024-01-15T02:16:24;53.67;;;22.42;;
49488;SDS011;35382;51.484;11.476;2024-01-15T02:18:49;50.45;;;20.38;;
49488;SDS011;35382;51.484;11.476;2024-01-15T02:21:15;53.08;;;20.00;;
49488;SDS011;35382;51.484;11.476;2024-01-15T02:23:40;52.85;;;21.05;;
49488;SDS011;35382;51.484;11.476;2024-01-15T02:26:06;55.08;;;21.83;;
49488;SDS011;35382;51.484;11.476;2024-01-15T02:28:32;56.00;;;21.25;;
49488;SDS011;35382;51.484;11.476;2024-01-15T02:30:58;53.05;;;20.70;;
49488;SDS011;35382;51.484;11.476;2024-01-15T02:33:23;52.97;;;20.35;;
49488;SDS011;35382;51.484;11.476;2024-01-15T02:35:49;51.17;;;20.10;;
49488;SDS011;35382;51.484;11.476;2024-01-15T02:38:14;44.35;;;19.52;;
49488;SDS011;35382;51.484;11.476;2024-01-15T02:40:39;53.95;;;18.80;;
49488;SDS011;35382;51.484;11.476;2024-01-15T02:43:05;48.95;;;20.90;;
49488;SDS011;35382;51.484;11.476;2024-01-15T02:45:30;51.70;;;20.35;;
49488;SDS011;35382;51.484;11.476;2024-01-15T02:47:56;49.90;;;19.52;;
49488;SDS011;35382;51.484;11.476;2024-01-15T02:50:21;46.80;;;19.33;;
49488;SDS011;35382;51.484;11.476;2024-01-15T02:52:47;45.53;;;17.20;;
49488;SDS011;35382;51.484;11.476;2024-01-15T02:55:12;41.72;;;18.38;;
49488;SDS011;35382;51.484;11.476;2024-01-15T02:57:37;42.90;;;19.15;;
49488;SDS011;35382;51.484;11.476;2024-01-15T03:00:06;51.58;;;20.77;;
49488;SDS011;35382;51.484;11.476;2024-01-15T03:02:32;46.60;;;18.38;;
49488;SDS011;35382;51.484;11.476;2024-01-15T03:04:57;42.95;;;20.08;;
49488;SDS011;35382;51.484;11.476;2024-01-15T03:07:23;40.35;;;17.98;;
49488;SDS011;35382;51.484;11.476;2024-01-15T03:09:48;41.72;;;16.73;;
49488;SDS011;35382;51.484;11.476;2024-01-15T03:12:15;41.85;;;17.33;;
49488;SDS011;35382;51.484;11.476;2024-01-15T03:14:40;43.83;;;17.90;;
49488;SDS011;35382;51.484;11.476;2024-01-15T03:17:06;41.30;;;16.77;;
49488;SDS011;35382;51.484;11.476;2024-01-15T03:19:34;47.58;;;19.63;;
49488;SDS011;35382;51.484;11.476;2024-01-15T03:21:59;43.30;;;17.83;;
49488;SDS011;35382;51.484;11.476;2024-01-15T03:24:25;43.53;;;18.52;;
49488;SDS011;35382;51.484;11.476;2024-01-15T03:26:50;43.47;;;17.90;;
49488;SDS011;35382;51.484;11.476;2024-01-15T03:29:16;42.45;;;16.35;;
49488;SDS011;35382;51.484;11.476;2024-01-15T03:31:41;40.28;;;16.92;;
49488;SDS011;35382;51.484;11.476;2024-01-15T03:34:06;41.63;;;18.65;;
49488;SDS011;35382;51.484;11.476;2024-01-15T03:36:32;50.50;;;17.90;;
49488;SDS011;35382;51.484;11.476;2024-01-15T03:38:57;51.13;;;18.38;;
49488;SDS011;35382;51.484;11.476;2024-01-15T03:41:22;46.40;;;18.05;;
49488;SDS011;35382;51.484;11.476;2024-01-15T03:43:48;43.78;;;17.30;;
49488;SDS011;35382;51.484;11.476;2024-01-15T03:46:15;43.38;;;17.08;;
49488;SDS011;35382;51.484;11.476;2024-01-15T03:48:40;41.47;;;16.45;;
49488;SDS011;35382;51.484;11.476;2024-01-15T03:51:10;37.08;;;15.90;;
49488;SDS011;35382;51.484;11.476;2024-01-15T03:53:37;34.38;;;13.88;;
49488;SDS011;35382;51.484;11.476;2024-01-15T03:56:03;34.60;;;13.98;;
49488;SDS011;35382;51.484;11.476;2024-01-15T03:58:31;29.98;;;13.88;;
49488;SDS011;35382;51.484;11.476;2024-01-15T04:00:56;32.13;;;14.77;;
49488;SDS011;35382;51.484;11.476;2024-01-15T04:03:21;31.17;;;12.50;;
49488;SDS011;35382;51.484;11.476;2024-01-15T04:05:47;28.10;;;12.95;;
49488;SDS011;35382;51.484;11.476;2024-01-15T04:08:12;30.30;;;12.80;;
49488;SDS011;35382;51.484;11.476;2024-01-15T04:10:39;29.50;;;14.45;;
49488;SDS011;35382;51.484;11.476;2024-01-15T04:13:04;35.17;;;15.32;;
49488;SDS011;35382;51.484;11.476;2024-01-15T04:15:30;35.13;;;14.07;;
49488;SDS011;35382;51.484;11.476;2024-01-15T04:17:55;30.88;;;14.07;;
49488;SDS011;35382;51.484;11.476;2024-01-15T04:20:20;30.02;;;13.88;;
49488;SDS011;35382;51.484;11.476;2024-01-15T04:22:46;24.30;;;11.88;;
49488;SDS011;35382;51.484;11.476;2024-01-15T04:25:11;29.83;;;13.10;;
49488;SDS011;35382;51.484;11.476;2024-01-15T04:27:36;24.50;;;11.75;;
49488;SDS011;35382;51.484;11.476;2024-01-15T04:30:02;27.92;;;12.38;;
49488;SDS011;35382;51.484;11.476;2024-01-15T04:32:27;22.88;;;10.98;;
49488;SDS011;35382;51.484;11.476;2024-01-15T04:34:53;26.17;;;11.82;;
49488;SDS011;35382;51.484;11.476;2024-01-15T04:37:18;23.00;;;10.73;;
49488;SDS011;35382;51.484;11.476;2024-01-15T04:39:43;23.52;;;11.15;;
49488;SDS011;35382;51.484;11.476;2024-01-15T04:42:09;20.10;;;9.63;;
49488;SDS011;35382;51.484;11.476;2024-01-15T04:44:34;22.20;;;10.85;;
49488;SDS011;35382;51.484;11.476;2024-01-15T04:47:00;25.08;;;11.23;;
49488;SDS011;35382;51.484;11.476;2024-01-15T04:49:25;21.70;;;10.18;;
49488;SDS011;35382;51.484;11.476;2024-01-15T04:51:51;21.45;;;10.23;;
49488;SDS011;35382;51.484;11.476;2024-01-15T04:54:16;20.02;;;9.55;;
49488;SDS011;35382;51.484;11.476;2024-01-15T04:56:41;21.40;;;9.13;;
49488;SDS011;35382;51.484;11.476;2024-01-15T04:59:07;21.98;;;10.75;;
49488;SDS011;35382;51.484;11.476;2024-01-15T05:01:32;23.35;;;10.52;;
49488;SDS011;35382;51.484;11.476;2024-01-15T05:04:01;24.08;;;9.70;;
49488;SDS011;35382;51.484;11.476;2024-01-15T05:06:27;22.17;;;10.45;;
49488;SDS011;35382;51.484;11.476;2024-01-15T05:08:52;19.73;;;9.65;;
49488;SDS011;35382;51.484;11.476;2024-01-15T05:11:18;21.00;;;10.23;;
49488;SDS011;35382;51.484;11.476;2024-01-15T05:13:43;20.45;;;10.13;;
49488;SDS011;35382;51.484;11.476;2024-01-15T05:16:08;24.65;;;10.93;;
49488;SDS011;35382;51.484;11.476;2024-01-15T05:18:34;20.45;;;10.02;;
49488;SDS011;35382;51.484;11.476;2024-01-15T05:20:59;21.38;;;10.45;;
49488;SDS011;35382;51.484;11.476;2024-01-15T05:23:25;21.80;;;10.25;;
49488;SDS011;35382;51.484;11.476;2024-01-15T05:25:50;23.83;;;11.13;;
49488;SDS011;35382;51.484;11.476;2024-01-15T05:28:16;22.98;;;11.02;;
49488;SDS011;35382;51.484;11.476;2024-01-15T05:30:43;21.48;;;10.43;;
49488;SDS011;35382;51.484;11.476;2024-01-15T05:33:09;24.45;;;10.60;;
49488;SDS011;35382;51.484;11.476;2024-01-15T05:35:34;21.92;;;9.95;;
49488;SDS011;35382;51.484;11.476;2024-01-15T05:37:59;23.83;;;10.60;;
49488;SDS011;35382;51.484;11.476;2024-01-15T05:40:30;20.90;;;9.85;;
49488;SDS011;35382;51.484;11.476;2024-01-15T05:42:56;19.40;;;10.15;;
49488;SDS011;35382;51.484;11.476;2024-01-15T05:45:21;21.85;;;11.07;;
49488;SDS011;35382;51.484;11.476;2024-01-15T05:47:46;21.50;;;9.52;;
49488;SDS011;35382;51.484;11.476;2024-01-15T05:50:12;22.60;;;9.77;;
49488;SDS011;35382;51.484;11.476;2024-01-15T05:52:37;21.83;;;9.82;;
49488;SDS011;35382;51.484;11.476;2024-01-15T05:55:03;24.10;;;10.32;;
49488;SDS011;35382;51.484;11.476;2024-01-15T05:57:29;20.92;;;9.10;;
49488;SDS011;35382;51.484;11.476;2024-01-15T05:59:54;16.58;;;8.30;;
49488;SDS011;35382;51.484;11.476;2024-01-15T06:02:20;17.58;;;8.45;;
49488;SDS011;35382;51.484;11.476;2024-01-15T06:04:45;21.33;;;8.95;;
49488;SDS011;35382;51.484;11.476;2024-01-15T06:07:11;18.95;;;7.90;;
49488;SDS011;35382;51.484;11.476;2024-01-15T06:09:36;22.02;;;9.18;;
49488;SDS011;35382;51.484;11.476;2024-01-15T06:12:02;21.50;;;9.13;;
49488;SDS011;35382;51.484;11.476;2024-01-15T06:14:27;19.02;;;9.20;;
49488;SDS011;35382;51.484;11.476;2024-01-15T06:16:54;18.15;;;8.95;;
49488;SDS011;35382;51.484;11.476;2024-01-15T06:19:19;22.00;;;8.02;;
49488;SDS011;35382;51.484;11.476;2024-01-15T06:21:45;21.05;;;8.30;;
49488;SDS011;35382;51.484;11.476;2024-01-15T06:24:10;23.48;;;8.68;;
49488;SDS011;35382;51.484;11.476;2024-01-15T06:26:35;22.17;;;9.05;;
49488;SDS011;35382;51.484;11.476;2024-01-15T06:29:01;20.05;;;8.85;;
49488;SDS011;35382;51.484;11.476;2024-01-15T06:31:26;22.00;;;10.05;;
49488;SDS011;35382;51.484;11.476;2024-01-15T06:33:52;25.98;;;10.50;;
49488;SDS011;35382;51.484;11.476;2024-01-15T06:36:17;22.23;;;8.93;;
49488;SDS011;35382;51.484;11.476;2024-01-15T06:38:43;20.20;;;8.60;;
49488;SDS011;35382;51.484;11.476;2024-01-15T06:41:09;20.83;;;9.70;;
49488;SDS011;35382;51.484;11.476;2024-01-15T06:43:34;25.92;;;9.85;;
49488;SDS011;35382;51.484;11.476;2024-01-15T06:46:00;21.13;;;9.43;;
49488;SDS011;35382;51.484;11.476;2024-01-15T06:48:26;25.70;;;10.07;;
49488;SDS011;35382;51.484;11.476;2024-01-15T06:50:51;25.83;;;10.38;;
49488;SDS011;35382;51.484;11.476;2024-01-15T06:53:17;25.10;;;10.30;;
49488;SDS011;35382;51.484;11.476;2024-01-15T06:55:42;22.55;;;9.80;;
49488;SDS011;35382;51.484;11.476;2024-01-15T06:58:07;22.95;;;9.40;;
49488;SDS011;35382;51.484;11.476;2024-01-15T07:00:33;25.23;;;10.75;;
49488;SDS011;35382;51.484;11.476;2024-01-15T07:02:58;22.00;;;9.27;;
49488;SDS011;35382;51.484;11.476;2024-01-15T07:05:23;23.98;;;9.88;;
49488;SDS011;35382;51.484;11.476;2024-01-15T07:07:49;23.58;;;9.05;;
49488;SDS011;35382;51.484;11.476;2024-01-15T07:10:15;21.80;;;9.68;;
49488;SDS011;35382;51.484;11.476;2024-01-15T07:12:44;22.27;;;9.73;;
49488;SDS011;35382;51.484;11.476;2024-01-15T07:15:10;25.13;;;10.80;;
49488;SDS011;35382;51.484;11.476;2024-01-15T07:17:35;19.48;;;9.35;;
49488;SDS011;35382;51.484;11.476;2024-01-15T07:20:02;18.80;;;8.97;;
49488;SDS011;35382;51.484;11.476;2024-01-15T07:22:27;20.50;;;9.30;;
49488;SDS011;35382;51.484;11.476;2024-01-15T07:24:53;20.55;;;9.23;;
49488;SDS011;35382;51.484;11.476;2024-01-15T07:27:18;18.95;;;9.80;;
49488;SDS011;35382;51.484;11.476;2024-01-15T07:29:43;18.38;;;8.85;;
49488;SDS011;35382;51.484;11.476;2024-01-15T07:32:09;18.73;;;10.38;;
49488;SDS011;35382;51.484;11.476;2024-01-15T07:34:35;20.70;;;9.50;;
49488;SDS011;35382;51.484;11.476;2024-01-15T07:37:00;22.38;;;9.38;;
49488;SDS011;35382;51.484;11.476;2024-01-15T07:39:25;21.10;;;10.20;;
49488;SDS011;35382;51.484;11.476;2024-01-15T07:41:52;21.45;;;8.82;;
49488;SDS011;35382;51.484;11.476;2024-01-15T07:44:17;23.58;;;10.00;;
49488;SDS011;35382;51.484;11.476;2024-01-15T07:46:48;23.75;;;9.73;;
49488;SDS011;35382;51.484;11.476;2024-01-15T07:49:13;21.50;;;9.82;;
49488;SDS011;35382;51.484;11.476;2024-01-15T07:51:39;21.20;;;9.88;;
49488;SDS011;35382;51.484;11.476;2024-01-15T07:54:04;19.35;;;9.48;;
49488;SDS011;35382;51.484;11.476;2024-01-15T07:56:30;20.08;;;10.35;;
49488;SDS011;35382;51.484;11.476;2024-01-15T07:58:56;22.42;;;10.13;;
49488;SDS011;35382;51.484;11.476;2024-01-15T08:01:22;23.52;;;10.05;;
49488;SDS011;35382;51.484;11.476;2024-01-15T08:03:47;22.98;;;10.48;;
49488;SDS011;35382;51.484;11.476;2024-01-15T08:06:13;22.55;;;10.23;;
49488;SDS011;35382;51.484;11.476;2024-01-15T08:08:38;24.30;;;10.38;;
49488;SDS011;35382;51.484;11.476;2024-01-15T08:11:03;23.65;;;10.40;;
49488;SDS011;35382;51.484;11.476;2024-01-15T08:13:29;18.52;;;8.85;;
49488;SDS011;35382;51.484;11.476;2024-01-15T08:15:55;21.05;;;9.40;;
49488;SDS011;35382;51.484;11.476;2024-01-15T08:18:20;19.73;;;9.45;;
49488;SDS011;35382;51.484;11.476;2024-01-15T08:20:45;19.55;;;8.15;;
49488;SDS011;35382;51.484;11.476;2024-01-15T08:23:11;19.35;;;8.15;;
49488;SDS011;35382;51.484;11.476;2024-01-15T08:25:36;19.08;;;8.35;;
49488;SDS011;35382;51.484;11.476;2024-01-15T08:28:02;16.88;;;8.18;;
49488;SDS011;35382;51.484;11.476;2024-01-15T08:30:31;20.13;;;9.90;;
49488;SDS011;35382;51.484;11.476;2024-01-15T08:32:56;18.88;;;8.80;;
49488;SDS011;35382;51.484;11.476;2024-01-15T08:35:22;18.63;;;9.23;;
49488;SDS011;35382;51.484;11.476;2024-01-15T08:37:49;22.73;;;8.88;;
49488;SDS011;35382;51.484;11.476;2024-01-15T08:40:14;19.63;;;9.98;;
49488;SDS011;35382;51.484;11.476;2024-01-15T08:42:40;20.60;;;9.40;;
49488;SDS011;35382;51.484;11.476;2024-01-15T08:45:06;20.25;;;9.50;;
49488;SDS011;35382;51.484;11.476;2024-01-15T08:47:31;21.52;;;9.65;;
49488;SDS011;35382;51.484;11.476;2024-01-15T08:49:57;22.42;;;10.27;;
49488;SDS011;35382;51.484;11.476;2024-01-15T08:52:22;19.38;;;9.48;;
49488;SDS011;35382;51.484;11.476;2024-01-15T08:54:47;24.80;;;10.05;;
49488;SDS011;35382;51.484;11.476;2024-01-15T08:57:13;20.55;;;9.90;;
49488;SDS011;35382;51.484;11.476;2024-01-15T08:59:38;21.73;;;9.80;;
49488;SDS011;35382;51.484;11.476;2024-01-15T09:02:03;21.27;;;9.55;;
49488;SDS011;35382;51.484;11.476;2024-01-15T09:04:29;17.38;;;8.98;;
49488;SDS011;35382;51.484;11.476;2024-01-15T09:06:54;19.98;;;9.52;;
49488;SDS011;35382;51.484;11.476;2024-01-15T09:09:19;19.95;;;9.98;;
49488;SDS011;35382;51.484;11.476;2024-01-15T09:11:45;24.17;;;10.52;;
49488;SDS011;35382;51.484;11.476;2024-01-15T09:14:10;21.00;;;9.90;;
49488;SDS011;35382;51.484;11.476;2024-01-15T09:16:36;19.75;;;9.20;;
49488;SDS011;35382;51.484;11.476;2024-01-15T09:19:01;19.55;;;9.23;;
49488;SDS011;35382;51.484;11.476;2024-01-15T09:21:29;22.85;;;10.05;;
49488;SDS011;35382;51.484;11.476;2024-01-15T09:23:55;20.52;;;10.02;;
49488;SDS011;35382;51.484;11.476;2024-01-15T09:26:20;20.48;;;9.10;;
49488;SDS011;35382;51.484;11.476;2024-01-15T09:28:45;20.05;;;8.93;;
49488;SDS011;35382;51.484;11.476;2024-01-15T09:31:11;21.38;;;9.55;;
49488;SDS011;35382;51.484;11.476;2024-01-15T09:33:36;21.13;;;9.73;;
49488;SDS011;35382;51.484;11.476;2024-01-15T09:36:02;21.23;;;8.88;;
49488;SDS011;35382;51.484;11.476;2024-01-15T09:38:31;16.80;;;8.25;;
49488;SDS011;35382;51.484;11.476;2024-01-15T09:40:56;18.17;;;7.85;;
49488;SDS011;35382;51.484;11.476;2024-01-15T09:43:22;16.92;;;7.57;;
49488;SDS011;35382;51.484;11.476;2024-01-15T09:45:47;18.15;;;8.50;;
49488;SDS011;35382;51.484;11.476;2024-01-15T09:48:14;14.75;;;7.38;;
49488;SDS011;35382;51.484;11.476;2024-01-15T09:50:42;15.48;;;7.63;;
49488;SDS011;35382;51.484;11.476;2024-01-15T09:53:08;13.75;;;7.30;;
49488;SDS011;35382;51.484;11.476;2024-01-15T09:55:34;18.98;;;9.20;;
49488;SDS011;35382;51.484;11.476;2024-01-15T09:58:01;22.42;;;9.48;;
49488;SDS011;35382;51.484;11.476;2024-01-15T10:00:27;25.33;;;10.52;;
49488;SDS011;35382;51.484;11.476;2024-01-15T10:02:54;21.33;;;9.43;;
49488;SDS011;35382;51.484;11.476;2024-01-15T10:05:19;22.15;;;9.10;;
49488;SDS011;35382;51.484;11.476;2024-01-15T10:07:44;23.17;;;9.18;;
49488;SDS011;35382;51.484;11.476;2024-01-15T10:10:12;14.95;;;7.10;;
49488;SDS011;35382;51.484;11.476;2024-01-15T10:12:38;21.13;;;8.77;;
49488;SDS011;35382;51.484;11.476;2024-01-15T10:15:04;20.13;;;9.63;;
49488;SDS011;35382;51.484;11.476;2024-01-15T10:17:30;16.60;;;8.40;;
49488;SDS011;35382;51.484;11.476;2024-01-15T10:19:55;15.38;;;7.18;;
49488;SDS011;35382;51.484;11.476;2024-01-15T10:22:21;15.98;;;7.53;;
49488;SDS011;35382;51.484;11.476;2024-01-15T10:24:46;13.75;;;7.25;;
49488;SDS011;35382;51.484;11.476;2024-01-15T10:27:12;14.57;;;7.70;;
49488;SDS011;35382;51.484;11.476;2024-01-15T10:29:37;12.30;;;5.80;;
49488;SDS011;35382;51.484;11.476;2024-01-15T10:32:05;10.63;;;5.20;;
49488;SDS011;35382;51.484;11.476;2024-01-15T10:34:31;10.68;;;4.95;;
49488;SDS011;35382;51.484;11.476;2024-01-15T10:36:57;12.82;;;4.95;;
49488;SDS011;35382;51.484;11.476;2024-01-15T10:39:23;12.70;;;6.20;;
49488;SDS011;35382;51.484;11.476;2024-01-15T10:41:49;12.77;;;6.10;;
49488;SDS011;35382;51.484;11.476;2024-01-15T10:44:15;11.88;;;5.63;;
49488;SDS011;35382;51.484;11.476;2024-01-15T10:46:40;12.48;;;5.65;;
49488;SDS011;35382;51.484;11.476;2024-01-15T10:49:06;12.48;;;5.30;;
49488;SDS011;35382;51.484;11.476;2024-01-15T10:51:32;11.82;;;6.22;;
49488;SDS011;35382;51.484;11.476;2024-01-15T10:53:57;14.40;;;5.78;;
49488;SDS011;35382;51.484;11.476;2024-01-15T10:56:24;12.98;;;5.57;;
49488;SDS011;35382;51.484;11.476;2024-01-15T10:58:52;9.18;;;4.65;;
49488;SDS011;35382;51.484;11.476;2024-01-15T11:01:19;13.02;;;5.93;;
49488;SDS011;35382;51.484;11.476;2024-01-15T11:03:45;12.68;;;5.82;;
49488;SDS011;35382;51.484;11.476;2024-01-15T11:06:17;12.45;;;5.43;;
49488;SDS011;35382;51.484;11.476;2024-01-15T11:08:48;12.27;;;5.65;;
49488;SDS011;35382;51.484;11.476;2024-01-15T11:11:14;13.77;;;5.70;;
49488;SDS011;35382;51.484;11.476;2024-01-15T11:13:41;15.70;;;5.70;;
49488;SDS011;35382;51.484;11.476;2024-01-15T11:16:07;11.48;;;5.55;;
49488;SDS011;35382;51.484;11.476;2024-01-15T11:23:43;13.85;;;6.85;;
49488;SDS011;35382;51.484;11.476;2024-01-15T11:26:26;15.55;;;6.25;;
49488;SDS011;35382;51.484;11.476;2024-01-15T11:29:06;13.18;;;6.00;;
49488;SDS011;35382;51.484;11.476;2024-01-15T11:34:03;10.50;;;5.47;;
49488;SDS011;35382;51.484;11.476;2024-01-15T11:44:28;19.48;;;7.70;;
49488;SDS011;35382;51.484;11.476;2024-01-15T11:46:58;17.95;;;7.40;;
49488;SDS011;35382;51.484;11.476;2024-01-15T11:49:52;15.68;;;7.45;;
49488;SDS011;35382;51.484;11.476;2024-01-15T11:52:32;18.40;;;7.25;;
49488;SDS011;35382;51.484;11.476;2024-01-15T12:00:05;17.42;;;7.20;;
49488;SDS011;35382;51.484;11.476;2024-01-15T12:02:41;14.68;;;6.72;;
49488;SDS011;35382;51.484;11.476;2024-01-15T12:05:08;11.75;;;6.00;;
49488;SDS011;35382;51.484;11.476;2024-01-15T12:07:34;11.85;;;6.18;;
49488;SDS011;35382;51.484;11.476;2024-01-15T12:10:00;12.73;;;6.03;;
49488;SDS011;35382;51.484;11.476;2024-01-15T12:12:30;11.40;;;5.38;;
49488;SDS011;35382;51.484;11.476;2024-01-15T12:15:04;12.63;;;5.10;;
49488;SDS011;35382;51.484;11.476;2024-01-15T12:17:30;12.35;;;5.93;;
49488;SDS011;35382;51.484;11.476;2024-01-15T12:19:56;12.65;;;6.43;;
49488;SDS011;35382;51.484;11.476;2024-01-15T12:22:22;12.55;;;5.30;;
49488;SDS011;35382;51.484;11.476;2024-01-15T12:24:47;12.25;;;5.38;;
49488;SDS011;35382;51.484;11.476;2024-01-15T12:27:12;12.63;;;5.03;;
49488;SDS011;35382;51.484;11.476;2024-01-15T12:29:38;10.30;;;4.78;;
49488;SDS011;35382;51.484;11.476;2024-01-15T12:32:04;8.05;;;4.45;;
49488;SDS011;35382;51.484;11.476;2024-01-15T12:34:30;9.27;;;4.72;;
49488;SDS011;35382;51.484;11.476;2024-01-15T12:36:57;10.65;;;5.63;;
49488;SDS011;35382;51.484;11.476;2024-01-15T12:39:22;12.18;;;5.50;;
49488;SDS011;35382;51.484;11.476;2024-01-15T12:41:49;12.00;;;5.10;;
49488;SDS011;35382;51.484;11.476;2024-01-15T12:44:14;10.65;;;5.30;;
49488;SDS011;35382;51.484;11.476;2024-01-15T12:46:40;11.98;;;5.10;;
49488;SDS011;35382;51.484;11.476;2024-01-15T12:49:05;11.38;;;5.10;;
49488;SDS011;35382;51.484;11.476;2024-01-15T12:51:32;12.43;;;4.45;;
49488;SDS011;35382;51.484;11.476;2024-01-15T12:53:59;16.83;;;6.47;;
49488;SDS011;35382;51.484;11.476;2024-01-15T12:56:24;15.05;;;6.43;;
49488;SDS011;35382;51.484;11.476;2024-01-15T12:58:50;15.48;;;7.20;;
49488;SDS011;35382;51.484;11.476;2024-01-15T13:01:15;12.15;;;6.13;;
49488;SDS011;35382;51.484;11.476;2024-01-15T13:03:41;13.38;;;5.93;;
49488;SDS011;35382;51.484;11.476;2024-01-15T13:06:06;12.38;;;5.15;;
49488;SDS011;35382;51.484;11.476;2024-01-15T13:08:31;10.70;;;5.47;;
49488;SDS011;35382;51.484;11.476;2024-01-15T13:10:57;11.70;;;4.68;;
49488;SDS011;35382;51.484;11.476;2024-01-15T13:13:22;10.00;;;4.88;;
49488;SDS011;35382;51.484;11.476;2024-01-15T13:15:48;9.77;;;4.68;;
49488;SDS011;35382;51.484;11.476;2024-01-15T13:18:13;14.10;;;5.50;;
49488;SDS011;35382;51.484;11.476;2024-01-15T13:20:39;11.02;;;5.82;;
49488;SDS011;35382;51.484;11.476;2024-01-15T13:23:04;11.27;;;4.68;;
49488;SDS011;35382;51.484;11.476;2024-01-15T13:25:29;9.93;;;4.50;;
49488;SDS011;35382;51.484;11.476;2024-01-15T13:27:55;9.73;;;4.60;;
49488;SDS011;35382;51.484;11.476;2024-01-15T13:30:20;9.13;;;4.50;;
49488;SDS011;35382;51.484;11.476;2024-01-15T13:32:45;9.80;;;4.43;;
49488;SDS011;35382;51.484;11.476;2024-01-15T13:35:11;9.85;;;4.63;;
49488;SDS011;35382;51.484;11.476;2024-01-15T13:37:36;8.60;;;4.10;;
49488;SDS011;35382;51.484;11.476;2024-01-15T13:40:01;7.95;;;3.13;;
49488;SDS011;35382;51.484;11.476;2024-01-15T13:42:31;7.75;;;3.05;;
49488;SDS011;35382;51.484;11.476;2024-01-15T13:44:57;7.80;;;3.10;;
49488;SDS011;35382;51.484;11.476;2024-01-15T13:47:22;7.38;;;3.38;;
49488;SDS011;35382;51.484;11.476;2024-01-15T13:49:47;7.82;;;2.92;;
49488;SDS011;35382;51.484;11.476;2024-01-15T13:52:13;8.40;;;2.92;;
49488;SDS011;35382;51.484;11.476;2024-01-15T13:54:38;7.55;;;3.13;;
49488;SDS011;35382;51.484;11.476;2024-01-15T13:57:03;5.80;;;2.97;;
49488;SDS011;35382;51.484;11.476;2024-01-15T13:59:31;8.40;;;3.40;;
49488;SDS011;35382;51.484;11.476;2024-01-15T14:01:56;7.10;;;2.58;;
49488;SDS011;35382;51.484;11.476;2024-01-15T14:04:22;6.65;;;3.17;;
49488;SDS011;35382;51.484;11.476;2024-01-15T14:06:47;7.32;;;2.90;;
49488;SDS011;35382;51.484;11.476;2024-01-15T14:09:12;6.35;;;3.20;;
49488;SDS011;35382;51.484;11.476;2024-01-15T14:11:38;7.47;;;3.30;;
49488;SDS011;35382;51.484;11.476;2024-01-15T14:14:03;7.28;;;3.63;;
49488;SDS011;35382;51.484;11.476;2024-01-15T14:16:28;7.35;;;3.35;;
49488;SDS011;35382;51.484;11.476;2024-01-15T14:18:54;6.80;;;3.60;;
49488;SDS011;35382;51.484;11.476;2024-01-15T14:21:19;8.23;;;3.88;;
49488;SDS011;35382;51.484;11.476;2024-01-15T14:23:44;8.00;;;4.07;;
49488;SDS011;35382;51.484;11.476;2024-01-15T14:26:10;11.63;;;4.50;;
49488;SDS011;35382;51.484;11.476;2024-01-15T14:28:35;8.98;;;4.03;;